Time;durP1;ratioP1;P1;durP2;ratioP2;P2;SDS_P1;SDS_P2;PMS_P1;PMS_P2;Temp;Humidity;BMP_temperature;BMP_pressure;BME280_temperature;BME280_humidity;BME280_pressure;Samples;Min_cycle;Max_cycle;Signal;HPM_P1;HPM_P2
2022/12/20 00:00:49;;;;;;;8.02;4.18;;;7.90;99.90;;;;;;5045963;28;20052;-49
2022/12/20 00:03:16;;;;;;;6.15;3.60;;;7.90;99.90;;;;;;5045932;28;20061;-49
2022/12/20 00:05:42;;;;;;;6.68;4.03;;;8.10;99.90;;;;;;5046008;28;20095;-49
2022/12/20 00:08:09;;;;;;;7.65;3.63;;;8.40;99.90;;;;;;5045988;28;20088;-51
2022/12/20 00:10:40;;;;;;;8.15;4.40;;;8.00;99.90;;;;;;5045663;28;20095;-52
2022/12/20 00:13:06;;;;;;;8.32;3.53;;;7.90;99.90;;;;;;5045649;28;20040;-51
2022/12/20 00:15:32;;;;;;;7.93;3.67;;;8.40;99.90;;;;;;5045849;28;20055;-49
2022/12/20 00:17:58;;;;;;;12.68;4.15;;;8.60;99.90;;;;;;5045209;28;20533;-48
2022/12/20 00:20:25;;;;;;;4.82;3.20;;;7.70;99.90;;;;;;5045551;28;20041;-49
2022/12/20 00:22:51;;;;;;;8.10;3.85;;;8.50;99.90;;;;;;5044942;28;20041;-49
2022/12/20 00:25:19;;;;;;;6.95;3.78;;;7.60;99.90;;;;;;5045591;28;20071;-49
2022/12/20 00:27:44;;;;;;;8.68;3.90;;;10.00;99.90;;;;;;5045208;28;20517;-52
2022/12/20 00:30:10;;;;;;;6.03;3.28;;;8.50;99.90;;;;;;5046188;28;20045;-48
2022/12/20 00:32:36;;;;;;;6.05;3.35;;;7.60;99.90;;;;;;5045529;28;20098;-50
2022/12/20 00:35:02;;;;;;;4.32;2.72;;;7.70;99.90;;;;;;5045589;28;20045;-50
2022/12/20 00:37:28;;;;;;;5.80;3.40;;;7.80;99.90;;;;;;5044899;28;20041;-51
2022/12/20 00:39:53;;;;;;;5.50;3.33;;;8.20;99.90;;;;;;5044918;28;20370;-52
2022/12/20 00:42:19;;;;;;;5.38;3.25;;;7.90;99.90;;;;;;5045222;28;20045;-50
2022/12/20 00:44:45;;;;;;;5.20;2.97;;;7.90;99.90;;;;;;5045614;28;20162;-51
2022/12/20 00:47:10;;;;;;;8.00;3.15;;;7.90;99.90;;;;;;5048910;28;20045;-51
2022/12/20 00:49:36;;;;;;;5.75;2.88;;;8.00;99.90;;;;;;5049129;28;20051;-49
2022/12/20 00:52:02;;;;;;;9.00;3.45;;;7.90;99.90;;;;;;5049804;28;20051;-51
2022/12/20 00:54:27;;;;;;;6.53;3.15;;;8.10;99.90;;;;;;5049332;28;20486;-51
2022/12/20 00:56:53;;;;;;;6.03;3.45;;;8.00;99.90;;;;;;5048949;28;20080;-52
2022/12/20 00:59:19;;;;;;;8.10;3.28;;;8.00;99.90;;;;;;5049304;28;20041;-53
2022/12/20 01:01:46;;;;;;;4.97;3.20;;;8.00;99.90;;;;;;5048705;28;20060;-52
2022/12/20 01:04:12;;;;;;;6.05;3.50;;;8.00;99.90;;;;;;5049342;28;20045;-51
2022/12/20 01:06:37;;;;;;;5.78;3.13;;;8.00;99.90;;;;;;5048969;28;20449;-51
2022/12/20 01:09:04;;;;;;;5.00;2.60;;;7.90;99.90;;;;;;5048740;28;20044;-53
2022/12/20 01:11:32;;;;;;;5.68;2.97;;;8.10;99.90;;;;;;5048967;28;20045;-51
2022/12/20 01:14:01;;;;;;;4.32;2.67;;;7.90;99.90;;;;;;5048746;28;20057;-52
2022/12/20 01:16:34;;;;;;;6.07;3.13;;;7.80;99.90;;;;;;5048552;28;20126;-51
2022/12/20 01:19:00;;;;;;;5.90;2.90;;;7.90;99.90;;;;;;5048212;28;20037;-52
2022/12/20 01:21:27;;;;;;;4.63;2.70;;;8.70;99.90;;;;;;5048855;28;20044;-51
2022/12/20 01:23:53;;;;;;;6.60;2.65;;;7.90;99.90;;;;;;5048636;28;20101;-52
2022/12/20 01:26:21;;;;;;;5.13;2.60;;;7.80;99.90;;;;;;5049166;28;20044;-49
2022/12/20 01:28:50;;;;;;;4.40;2.63;;;7.90;99.90;;;;;;5049071;28;20037;-51
2022/12/20 01:31:18;;;;;;;4.90;2.83;;;7.90;99.90;;;;;;5049298;28;20041;-49
2022/12/20 01:33:45;;;;;;;6.50;3.28;;;7.90;99.90;;;;;;5048457;28;20043;-50
2022/12/20 01:36:24;;;;;;;7.43;2.92;;;7.90;99.90;;;;;;5048422;28;20045;-53
2022/12/20 01:38:50;;;;;;;5.63;3.15;;;7.80;99.90;;;;;;5048451;28;20045;-50
2022/12/20 01:41:21;;;;;;;6.18;3.00;;;7.80;99.90;;;;;;5048658;28;20483;-50
2022/12/20 01:43:58;;;;;;;5.30;2.97;;;7.80;99.90;;;;;;5048408;28;20114;-52
2022/12/20 01:46:29;;;;;;;5.70;3.45;;;8.50;99.90;;;;;;5048954;28;20044;-51
2022/12/20 01:49:13;;;;;;;4.97;2.92;;;7.80;99.90;;;;;;5048844;28;20691;-51
2022/12/20 01:51:44;;;;;;;4.43;3.35;;;8.30;99.90;;;;;;5048420;28;20812;-49
2022/12/20 01:54:15;;;;;;;4.57;2.70;;;7.80;99.90;;;;;;5048178;28;20040;-49
2022/12/20 01:56:43;;;;;;;6.82;3.47;;;7.80;99.90;;;;;;5047586;28;20544;-50
2022/12/20 01:59:11;;;;;;;4.38;3.05;;;7.80;99.90;;;;;;5047795;28;20110;-50
2022/12/20 02:01:36;;;;;;;11.25;3.50;;;7.80;99.90;;;;;;5047986;28;20053;-49
2022/12/20 02:04:02;;;;;;;5.88;3.22;;;7.80;99.90;;;;;;5047913;28;20098;-52
2022/12/20 02:06:28;;;;;;;7.22;3.10;;;7.80;99.90;;;;;;5048291;28;20128;-49
2022/12/20 02:08:57;;;;;;;5.88;3.38;;;7.60;99.90;;;;;;5047600;28;20103;-51
2022/12/20 02:11:41;;;;;;;6.13;2.95;;;8.10;99.90;;;;;;5048254;28;20056;-51
2022/12/20 02:14:41;;;;;;;6.10;3.50;;;7.70;99.90;;;;;;5047869;28;20052;-49
2022/12/20 02:17:34;;;;;;;7.22;3.45;;;7.70;99.90;;;;;;5047576;28;20376;-51
2022/12/20 02:20:32;;;;;;;8.45;3.47;;;7.70;99.90;;;;;;5047817;28;20063;-51
2022/12/20 02:23:06;;;;;;;8.25;3.65;;;7.50;99.90;;;;;;5048202;28;20055;-50
2022/12/20 02:25:50;;;;;;;5.32;2.80;;;7.70;99.90;;;;;;5047928;28;20356;-51
2022/12/20 02:28:25;;;;;;;6.60;3.30;;;7.70;99.90;;;;;;5048132;28;20138;-52
2022/12/20 02:30:53;;;;;;;4.28;3.17;;;7.70;99.90;;;;;;5047309;28;20055;-51
2022/12/20 02:33:21;;;;;;;7.70;3.85;;;7.70;99.90;;;;;;5046326;28;20045;-50
2022/12/20 02:35:47;;;;;;;8.30;2.90;;;8.70;99.90;;;;;;5046671;28;20098;-51
2022/12/20 02:38:36;;;;;;;5.75;2.85;;;8.10;99.90;;;;;;5047964;28;20053;-50
2022/12/20 02:41:22;;;;;;;4.53;2.88;;;7.70;99.90;;;;;;5047499;28;20059;-50
2022/12/20 02:47:04;;;;;;;4.72;3.25;;;7.80;99.90;;;;;;5045486;28;20716;-51
2022/12/20 02:49:33;;;;;;;3.95;2.85;;;7.80;99.90;;;;;;5046955;28;20126;-51
2022/12/20 02:52:02;;;;;;;6.15;2.63;;;7.80;99.90;;;;;;5046399;28;20047;-51
2022/12/20 02:54:28;;;;;;;7.35;3.35;;;8.50;99.90;;;;;;5046981;28;20052;-50
2022/12/20 02:57:04;;;;;;;5.25;2.90;;;8.70;99.90;;;;;;5046858;28;20041;-52
2022/12/20 02:59:40;;;;;;;8.13;3.63;;;7.90;99.90;;;;;;5047410;28;20047;-50
2022/12/20 03:02:06;;;;;;;5.25;2.70;;;7.90;99.90;;;;;;5047109;28;20392;-50
2022/12/20 03:04:37;;;;;;;5.38;3.10;;;7.90;99.90;;;;;;5047301;28;20524;-50
2022/12/20 03:07:09;;;;;;;6.40;3.60;;;7.90;99.90;;;;;;5047030;28;20101;-50
2022/12/20 03:09:41;;;;;;;6.03;3.58;;;7.90;99.90;;;;;;5046619;28;20560;-48
2022/12/20 03:12:08;;;;;;;7.60;3.45;;;7.90;99.90;;;;;;5047679;28;20045;-52
2022/12/20 03:14:34;;;;;;;4.68;3.08;;;7.90;99.90;;;;;;5047074;28;20049;-49
2022/12/20 03:17:00;;;;;;;7.03;3.95;;;7.90;99.90;;;;;;5046540;28;20040;-49
2022/12/20 03:19:25;;;;;;;11.15;3.95;;;7.90;99.90;;;;;;5046532;28;20406;-51
2022/12/20 03:21:51;;;;;;;7.97;4.03;;;7.90;99.90;;;;;;5047244;28;20049;-51
2022/12/20 03:24:17;;;;;;;7.28;4.43;;;7.90;99.90;;;;;;5047066;28;20376;-50
2022/12/20 03:26:43;;;;;;;10.40;4.40;;;7.90;99.90;;;;;;5047537;28;20099;-52
2022/12/20 03:29:09;;;;;;;9.23;4.60;;;7.90;99.90;;;;;;5047235;28;20118;-51
2022/12/20 03:31:35;;;;;;;8.60;4.35;;;7.90;99.90;;;;;;5046798;28;20463;-53
2022/12/20 03:34:01;;;;;;;6.90;4.28;;;8.20;99.90;;;;;;5046176;28;20036;-53
2022/12/20 03:36:26;;;;;;;6.13;4.20;;;7.90;99.90;;;;;;5046559;28;20569;-51
2022/12/20 03:38:53;;;;;;;7.88;4.40;;;7.90;99.90;;;;;;5045041;28;20056;-50
2022/12/20 03:41:20;;;;;;;10.77;5.15;;;8.00;99.90;;;;;;5046614;28;20214;-52
2022/12/20 03:43:47;;;;;;;15.20;4.85;;;7.90;99.90;;;;;;5046477;28;20080;-52
2022/12/20 03:46:12;;;;;;;9.70;5.18;;;8.70;99.90;;;;;;5046325;28;20048;-51
2022/12/20 03:48:38;;;;;;;9.75;4.65;;;7.90;99.90;;;;;;5046721;28;20044;-51
2022/12/20 03:51:04;;;;;;;8.32;4.30;;;7.90;99.90;;;;;;5045964;28;20052;-52
2022/12/20 03:53:30;;;;;;;9.20;4.75;;;7.90;99.90;;;;;;5046262;28;20045;-50
2022/12/20 03:55:55;;;;;;;6.85;4.20;;;8.10;99.90;;;;;;5046539;28;20045;-51
2022/12/20 03:58:21;;;;;;;6.82;4.82;;;7.90;99.90;;;;;;5045625;28;20558;-52
2022/12/20 04:00:47;;;;;;;9.70;5.03;;;8.20;99.90;;;;;;5046410;28;20062;-51
2022/12/20 04:03:13;;;;;;;6.22;4.45;;;7.80;99.90;;;;;;5046002;28;20091;-52
2022/12/20 04:05:38;;;;;;;7.85;4.88;;;7.90;99.90;;;;;;5046304;28;20045;-52
2022/12/20 04:08:04;;;;;;;10.10;5.55;;;6.10;99.90;;;;;;5046302;28;20049;-53
2022/12/20 04:10:30;;;;;;;8.05;5.18;;;7.90;99.90;;;;;;5046353;28;20776;-52
2022/12/20 04:12:56;;;;;;;7.75;4.80;;;7.80;99.90;;;;;;5046218;28;20089;-50
2022/12/20 04:15:21;;;;;;;8.70;4.40;;;8.70;99.90;;;;;;5046177;28;20542;-52
2022/12/20 04:17:47;;;;;;;10.20;5.90;;;8.70;99.90;;;;;;5046579;28;20386;-51
2022/12/20 04:20:18;;;;;;;8.27;5.68;;;8.80;99.90;;;;;;5047702;28;20041;-51
2022/12/20 04:22:48;;;;;;;7.80;5.03;;;8.20;99.90;;;;;;5050661;28;20048;-51
2022/12/20 04:25:16;;;;;;;9.80;5.10;;;7.90;99.90;;;;;;5050219;28;20099;-50
2022/12/20 04:27:41;;;;;;;8.30;5.15;;;7.90;99.90;;;;;;5050191;28;20056;-51
2022/12/20 04:30:08;;;;;;;10.77;5.68;;;8.80;99.90;;;;;;5050040;28;20048;-52
2022/12/20 04:32:34;;;;;;;10.77;5.82;;;7.90;99.90;;;;;;5050352;28;20045;-48
2022/12/20 04:35:00;;;;;;;7.55;5.30;;;8.00;99.90;;;;;;5049189;28;20041;-49
2022/12/20 04:37:26;;;;;;;11.20;5.93;;;8.00;99.90;;;;;;5049989;28;20088;-51
2022/12/20 04:39:52;;;;;;;11.15;6.15;;;8.00;99.90;;;;;;5050416;28;20069;-50
2022/12/20 04:42:18;;;;;;;12.15;6.10;;;7.80;99.90;;;;;;5049788;28;20044;-52
2022/12/20 04:44:43;;;;;;;9.05;5.68;;;8.00;99.90;;;;;;5049964;28;20055;-50
2022/12/20 04:47:09;;;;;;;9.55;6.03;;;7.90;99.90;;;;;;5049881;28;20036;-51
2022/12/20 04:49:35;;;;;;;10.48;6.05;;;8.00;99.90;;;;;;5049720;28;20049;-50
2022/12/20 04:53:46;;;;;;;12.73;6.30;;;8.70;99.90;;;;;;5050072;28;20207;-51
2022/12/20 04:54:46;;;;;;;8.00;5.25;;;7.90;99.90;;;;;;5049998;28;20048;-51
2022/12/20 04:57:12;;;;;;;11.40;6.50;;;7.90;99.90;;;;;;5049649;28;20624;-51
2022/12/20 04:59:38;;;;;;;10.20;5.75;;;7.90;99.90;;;;;;5049706;28;20517;-51
2022/12/20 05:02:04;;;;;;;12.23;6.60;;;7.90;99.90;;;;;;5049065;28;20049;-52
2022/12/20 05:04:30;;;;;;;10.30;6.32;;;9.00;99.90;;;;;;5049194;28;20041;-51
2022/12/20 05:06:55;;;;;;;11.80;6.35;;;8.00;99.90;;;;;;5048954;28;20045;-52
2022/12/20 05:09:21;;;;;;;11.07;6.65;;;8.10;99.90;;;;;;5049291;28;20051;-50
2022/12/20 05:11:48;;;;;;;11.48;6.03;;;8.10;99.90;;;;;;5049493;28;20128;-51
2022/12/20 05:14:14;;;;;;;10.68;6.32;;;9.10;99.90;;;;;;5048968;28;20044;-51
2022/12/20 05:16:39;;;;;;;12.07;6.32;;;8.10;99.90;;;;;;5049213;28;20048;-50
2022/12/20 05:19:05;;;;;;;8.18;5.90;;;8.20;99.90;;;;;;5048777;28;20048;-52
2022/12/20 05:27:01;;;;;;;15.00;6.25;;;8.30;99.90;;;;;;5046978;28;20142;-50
2022/12/20 05:29:27;;;;;;;9.38;5.78;;;6.50;99.90;;;;;;5047658;28;20562;-52
2022/12/20 05:31:53;;;;;;;8.85;4.85;;;9.40;99.90;;;;;;5048266;28;20127;-49
2022/12/20 05:34:20;;;;;;;9.13;5.18;;;8.40;99.90;;;;;;5048927;28;20044;-52
2022/12/20 05:36:46;;;;;;;9.05;5.47;;;9.40;99.90;;;;;;5048591;28;20392;-50
2022/12/20 05:39:11;;;;;;;7.40;4.97;;;8.50;99.90;;;;;;5048545;28;20051;-53
2022/12/20 05:41:39;;;;;;;8.25;5.18;;;8.50;99.90;;;;;;5048632;28;20037;-52
2022/12/20 05:44:05;;;;;;;7.38;4.80;;;8.60;99.90;;;;;;5048657;28;20052;-50
2022/12/20 05:46:32;;;;;;;8.05;4.22;;;8.50;99.90;;;;;;5048230;28;20520;-52
2022/12/20 05:48:58;;;;;;;7.65;4.85;;;9.50;99.90;;;;;;5048163;28;20055;-50
2022/12/20 05:51:24;;;;;;;8.35;4.75;;;8.50;99.90;;;;;;5048255;28;20633;-51
2022/12/20 05:53:50;;;;;;;6.25;4.35;;;8.50;99.90;;;;;;5048419;28;20052;-51
2022/12/20 05:56:15;;;;;;;7.38;4.53;;;8.80;99.90;;;;;;5048131;28;20048;-53
2022/12/20 05:58:41;;;;;;;7.53;4.22;;;8.60;99.90;;;;;;5047931;28;20051;-52
2022/12/20 06:01:08;;;;;;;7.82;3.75;;;8.60;99.90;;;;;;5048023;28;20590;-51
2022/12/20 06:03:33;;;;;;;7.32;3.53;;;8.60;99.90;;;;;;5048016;28;20049;-49
2022/12/20 06:05:59;;;;;;;5.93;3.97;;;8.60;99.90;;;;;;5047897;28;20052;-49
2022/12/20 06:08:26;;;;;;;8.02;4.32;;;8.40;99.90;;;;;;5047922;28;20048;-51
2022/12/20 06:10:51;;;;;;;6.13;3.88;;;8.50;99.90;;;;;;5047859;28;20539;-51
2022/12/20 06:13:17;;;;;;;7.15;4.05;;;8.80;99.90;;;;;;5048007;28;20076;-52
2022/12/20 06:15:43;;;;;;;6.97;3.92;;;8.50;99.90;;;;;;5047495;28;20330;-49
2022/12/20 06:18:10;;;;;;;6.20;3.22;;;8.40;99.90;;;;;;5048221;28;20127;-51
2022/12/20 06:20:36;;;;;;;5.57;3.50;;;8.40;99.90;;;;;;5047726;28;20048;-48
2022/12/20 06:23:03;;;;;;;5.80;3.80;;;8.30;99.90;;;;;;5048090;28;20044;-51
2022/12/20 06:25:29;;;;;;;6.40;3.90;;;8.30;99.90;;;;;;5046421;28;20049;-50
2022/12/20 06:27:55;;;;;;;8.73;3.53;;;8.30;99.90;;;;;;5047357;28;20554;-48
2022/12/20 06:30:21;;;;;;;5.22;3.42;;;8.40;99.90;;;;;;5048045;28;20127;-49
2022/12/20 06:32:47;;;;;;;5.82;3.70;;;9.30;99.90;;;;;;5047900;28;20077;-49
2022/12/20 06:35:13;;;;;;;6.25;3.85;;;8.60;99.90;;;;;;5047417;28;20072;-48
2022/12/20 06:37:39;;;;;;;7.68;4.50;;;9.70;99.90;;;;;;5047709;28;20095;-53
2022/12/20 06:40:10;;;;;;;5.18;3.47;;;8.70;99.90;;;;;;5048044;28;20474;-53
2022/12/20 06:42:36;;;;;;;11.35;4.15;;;8.70;99.90;;;;;;5046988;28;20044;-49
2022/12/20 06:45:02;;;;;;;6.15;3.38;;;8.70;99.90;;;;;;5048236;28;20041;-52
2022/12/20 06:47:28;;;;;;;7.47;3.83;;;8.70;99.90;;;;;;5046122;28;20507;-52
2022/12/20 06:49:53;;;;;;;7.50;4.00;;;8.70;99.90;;;;;;5047847;28;20087;-53
2022/12/20 06:52:19;;;;;;;6.38;4.07;;;8.80;99.90;;;;;;5047616;28;20568;-50
2022/12/20 06:54:45;;;;;;;6.30;4.45;;;8.80;99.90;;;;;;5047508;28;20041;-51
2022/12/20 06:57:10;;;;;;;8.55;4.88;;;8.80;99.90;;;;;;5047191;28;20033;-52
2022/12/20 06:59:36;;;;;;;10.88;5.63;;;8.80;99.90;;;;;;5047197;28;20101;-51
2022/12/20 07:02:02;;;;;;;10.80;4.70;;;9.50;99.90;;;;;;5046693;28;20122;-53
2022/12/20 07:04:27;;;;;;;8.05;5.18;;;8.80;99.90;;;;;;5046606;28;20049;-51
2022/12/20 07:06:53;;;;;;;9.45;5.63;;;8.80;99.90;;;;;;5047436;28;20084;-53
2022/12/20 07:09:19;;;;;;;10.10;5.40;;;8.60;99.90;;;;;;5047017;28;20144;-53
2022/12/20 07:11:44;;;;;;;12.90;5.88;;;9.50;99.90;;;;;;5046943;28;20467;-52
2022/12/20 07:14:10;;;;;;;9.32;5.40;;;8.80;99.90;;;;;;5046717;28;20725;-51
2022/12/20 07:16:36;;;;;;;12.10;5.97;;;9.40;99.90;;;;;;5045877;28;20398;-52
2022/12/20 07:19:02;;;;;;;8.00;5.82;;;8.70;99.90;;;;;;5046510;28;20045;-52
2022/12/20 07:21:28;;;;;;;10.82;7.45;;;8.60;99.90;;;;;;5046212;28;20056;-51
2022/12/20 07:23:56;;;;;;;10.45;6.70;;;8.90;99.90;;;;;;5046187;28;20043;-52
2022/12/20 07:26:22;;;;;;;14.15;7.43;;;9.10;99.90;;;;;;5047209;28;20205;-52
2022/12/20 07:28:48;;;;;;;12.00;6.18;;;8.90;99.90;;;;;;5046831;28;20064;-52
2022/12/20 07:31:13;;;;;;;10.25;6.68;;;8.90;99.90;;;;;;5046775;28;20048;-51
2022/12/20 07:33:39;;;;;;;10.00;6.38;;;8.80;99.90;;;;;;5045822;28;20080;-50
2022/12/20 07:36:08;;;;;;;12.20;7.40;;;8.90;99.90;;;;;;5045877;28;20045;-52
2022/12/20 07:38:35;;;;;;;15.85;7.03;;;8.90;99.90;;;;;;5044396;28;20111;-52
2022/12/20 07:41:15;;;;;;;12.43;7.32;;;8.90;99.90;;;;;;5046651;28;20047;-52
2022/12/20 07:43:42;;;;;;;15.93;8.40;;;8.90;99.90;;;;;;5046216;28;20107;-52
2022/12/20 07:46:10;;;;;;;13.13;7.00;;;8.90;99.90;;;;;;5045842;28;20036;-52
2022/12/20 07:48:36;;;;;;;11.00;7.70;;;9.70;99.90;;;;;;5045832;28;20052;-51
2022/12/20 07:51:06;;;;;;;13.82;7.45;;;9.70;99.90;;;;;;5044479;28;20045;-50
2022/12/20 07:53:35;;;;;;;18.40;8.20;;;8.70;99.90;;;;;;5046081;28;20048;-48
2022/12/20 07:56:01;;;;;;;13.15;7.85;;;9.60;99.90;;;;;;5046675;28;20040;-52
2022/12/20 07:58:28;;;;;;;13.35;7.82;;;8.90;99.90;;;;;;5044777;28;20820;-53
2022/12/20 08:00:56;;;;;;;14.85;7.95;;;8.80;99.90;;;;;;5046109;28;20052;-51
2022/12/20 08:03:27;;;;;;;14.02;8.65;;;8.80;99.90;;;;;;5046600;28;20097;-52
2022/12/20 08:05:55;;;;;;;10.95;7.32;;;8.80;99.90;;;;;;5045195;28;20457;-52
2022/12/20 08:08:21;;;;;;;12.18;8.05;;;8.60;99.90;;;;;;5046219;28;20045;-48
2022/12/20 08:10:48;;;;;;;11.38;7.90;;;9.00;99.90;;;;;;5045630;28;20076;-52
2022/12/20 08:13:14;;;;;;;13.38;8.10;;;8.60;99.90;;;;;;5046661;28;20045;-52
2022/12/20 08:15:40;;;;;;;12.18;8.40;;;9.20;99.90;;;;;;5046070;28;20067;-53
2022/12/20 08:18:06;;;;;;;11.63;8.05;;;9.30;99.90;;;;;;5045563;28;20040;-51
2022/12/20 08:20:32;;;;;;;11.05;7.57;;;9.20;99.90;;;;;;5046408;28;20033;-50
2022/12/20 08:22:57;;;;;;;11.55;7.43;;;8.90;99.90;;;;;;5046094;28;20141;-53
2022/12/20 08:25:24;;;;;;;12.75;6.80;;;9.60;99.90;;;;;;5045890;28;20090;-51
2022/12/20 08:27:50;;;;;;;11.93;8.30;;;8.80;99.90;;;;;;5045884;28;20064;-49
2022/12/20 08:30:16;;;;;;;12.18;7.00;;;9.00;99.90;;;;;;5046423;28;20049;-51
2022/12/20 08:32:41;;;;;;;9.35;6.57;;;9.00;99.90;;;;;;5046895;28;20534;-53
2022/12/20 08:35:08;;;;;;;10.68;6.90;;;9.00;99.90;;;;;;5046869;28;20048;-51
2022/12/20 08:37:33;;;;;;;12.60;7.38;;;9.00;99.90;;;;;;5045900;28;20521;-52
2022/12/20 08:39:59;;;;;;;10.73;6.60;;;9.30;99.90;;;;;;5045699;28;20045;-53
2022/12/20 08:42:26;;;;;;;10.40;6.15;;;9.60;99.90;;;;;;5046881;28;20045;-53
2022/12/20 08:44:52;;;;;;;10.27;5.60;;;8.90;99.90;;;;;;5046272;28;20041;-52
2022/12/20 08:47:17;;;;;;;7.43;5.45;;;9.70;99.90;;;;;;5044888;28;20074;-51
2022/12/20 08:49:43;;;;;;;10.23;5.43;;;9.00;99.90;;;;;;5046057;28;20105;-51
2022/12/20 08:52:08;;;;;;;7.85;5.40;;;9.00;99.90;;;;;;5045909;28;20091;-51
2022/12/20 08:54:34;;;;;;;8.60;5.75;;;9.50;99.90;;;;;;5045927;28;20055;-52
2022/12/20 08:57:00;;;;;;;8.95;5.55;;;9.80;99.90;;;;;;5045905;28;20106;-53
2022/12/20 08:59:25;;;;;;;9.27;5.43;;;9.00;99.90;;;;;;5046232;28;20284;-52
2022/12/20 09:01:53;;;;;;;8.10;4.85;;;8.90;99.90;;;;;;5044128;28;20502;-53
2022/12/20 09:04:19;;;;;;;9.63;5.25;;;8.90;99.90;;;;;;5046019;28;20077;-52
2022/12/20 09:06:45;;;;;;;8.82;5.03;;;9.40;99.90;;;;;;5047201;28;20041;-49
2022/12/20 09:09:11;;;;;;;7.35;5.30;;;8.90;99.90;;;;;;5049121;28;20041;-54
2022/12/20 09:11:37;;;;;;;9.55;5.18;;;8.90;99.90;;;;;;5048749;28;20442;-53
2022/12/20 09:14:02;;;;;;;7.07;4.82;;;9.70;99.90;;;;;;5049417;28;20130;-53
2022/12/20 09:16:31;;;;;;;10.20;5.78;;;8.90;99.90;;;;;;5049452;28;20073;-49
2022/12/20 09:18:58;;;;;;;11.20;4.75;;;8.80;99.90;;;;;;5048587;28;20060;-50
2022/12/20 09:21:24;;;;;;;9.57;4.50;;;8.80;99.90;;;;;;5049165;28;20159;-53
2022/12/20 09:23:52;;;;;;;5.65;4.20;;;8.80;99.90;;;;;;5049078;28;20048;-54
2022/12/20 09:26:20;;;;;;;7.22;4.30;;;8.90;99.90;;;;;;5049216;28;20037;-53
2022/12/20 09:28:46;;;;;;;7.47;4.57;;;8.80;99.90;;;;;;5049525;28;20060;-53
2022/12/20 09:31:23;;;;;;;6.75;5.10;;;9.10;99.90;;;;;;5048833;28;20094;-54
2022/12/20 09:33:53;;;;;;;7.40;4.43;;;8.80;99.90;;;;;;5048396;28;20048;-48
2022/12/20 09:36:20;;;;;;;6.95;5.10;;;8.90;99.90;;;;;;5048657;28;20124;-46
2022/12/20 09:38:47;;;;;;;6.70;4.15;;;8.90;99.90;;;;;;5048787;28;20048;-47
2022/12/20 09:41:32;;;;;;;5.75;3.92;;;9.20;99.90;;;;;;5048276;28;20051;-46
2022/12/20 09:43:59;;;;;;;8.95;3.58;;;9.00;99.90;;;;;;5048623;28;20049;-47
2022/12/20 09:46:26;;;;;;;5.53;3.67;;;10.80;99.90;;;;;;5048406;28;20526;-48
2022/12/20 09:48:53;;;;;;;7.95;3.88;;;9.00;99.90;;;;;;5048655;28;20052;-46
2022/12/20 09:51:40;;;;;;;4.55;3.53;;;9.00;99.90;;;;;;5048843;28;20041;-50
2022/12/20 09:54:15;;;;;;;6.18;3.63;;;9.00;99.90;;;;;;5048810;28;20040;-46
2022/12/20 09:56:50;;;;;;;8.80;4.50;;;9.10;99.90;;;;;;5049139;28;20048;-46
2022/12/20 09:59:19;;;;;;;5.85;3.90;;;9.00;99.90;;;;;;5049011;28;20036;-46
2022/12/20 10:01:48;;;;;;;6.88;3.58;;;9.00;99.90;;;;;;5048995;28;20045;-48
2022/12/20 10:04:28;;;;;;;7.80;3.85;;;9.10;99.90;;;;;;5048706;28;20080;-57
2022/12/20 10:07:16;;;;;;;6.90;3.45;;;9.10;99.90;;;;;;5049001;28;20041;-45
2022/12/20 10:10:08;;;;;;;6.07;3.00;;;9.00;99.90;;;;;;5045138;28;20158;-52
2022/12/20 10:13:01;;;;;;;6.53;3.50;;;9.10;99.90;;;;;;5044805;28;20106;-45
2022/12/20 10:15:37;;;;;;;6.10;3.45;;;9.10;99.90;;;;;;5046944;28;20041;-46
2022/12/20 10:18:18;;;;;;;5.35;3.75;;;9.00;99.90;;;;;;5046918;28;20041;-45
2022/12/20 10:20:59;;;;;;;6.13;3.50;;;9.00;99.90;;;;;;5047550;28;20048;-56
2022/12/20 10:23:31;;;;;;;8.00;3.92;;;9.00;99.90;;;;;;5047597;28;20045;-55
2022/12/20 10:25:57;;;;;;;6.47;3.50;;;9.00;99.90;;;;;;5047136;28;20099;-55
2022/12/20 10:28:27;;;;;;;9.70;3.83;;;9.00;99.90;;;;;;5047231;28;20285;-53
2022/12/20 10:30:53;;;;;;;9.27;4.25;;;8.90;99.90;;;;;;5047216;28;20125;-50
2022/12/20 10:33:23;;;;;;;5.40;3.33;;;9.00;99.90;;;;;;5047195;28;20595;-50
2022/12/20 10:35:49;;;;;;;9.05;3.90;;;9.00;99.90;;;;;;5046574;28;20068;-52
2022/12/20 10:38:19;;;;;;;7.63;4.63;;;9.00;99.90;;;;;;5045609;28;20103;-59
2022/12/20 10:40:45;;;;;;;7.28;4.40;;;9.00;99.90;;;;;;5046627;28;20121;-53
2022/12/20 10:43:21;;;;;;;7.72;3.60;;;9.00;99.90;;;;;;5048112;28;20075;-54
2022/12/20 10:46:00;;;;;;;8.50;3.47;;;9.00;99.90;;;;;;5048195;28;20052;-57
2022/12/20 10:48:30;;;;;;;7.30;4.00;;;8.90;99.90;;;;;;5047969;28;20056;-57
2022/12/20 10:51:03;;;;;;;8.02;3.83;;;9.30;99.90;;;;;;5047921;28;20437;-57
2022/12/20 10:53:30;;;;;;;9.48;3.97;;;9.00;99.90;;;;;;5048060;28;20041;-57
2022/12/20 10:56:16;;;;;;;9.55;4.40;;;9.00;99.90;;;;;;5047951;28;20533;-57
2022/12/20 10:58:50;;;;;;;9.18;4.57;;;9.00;99.90;;;;;;5046475;28;20175;-57
2022/12/20 11:01:18;;;;;;;8.00;4.90;;;9.10;99.90;;;;;;5047311;28;20095;-58
2022/12/20 11:03:50;;;;;;;9.18;4.63;;;9.10;99.90;;;;;;5047567;28;20057;-57
2022/12/20 11:06:18;;;;;;;7.72;3.97;;;9.20;99.90;;;;;;5047506;28;20048;-58
2022/12/20 11:08:44;;;;;;;9.70;4.88;;;9.20;99.90;;;;;;5047475;28;20769;-57
2022/12/20 11:11:13;;;;;;;10.57;4.38;;;9.30;99.90;;;;;;5046239;28;20052;-57
2022/12/20 11:13:40;;;;;;;8.93;4.28;;;9.20;99.90;;;;;;5047609;28;20060;-57
2022/12/20 11:16:20;;;;;;;10.00;4.90;;;9.30;99.90;;;;;;5047538;28;20045;-57
2022/12/20 11:19:05;;;;;;;9.57;6.18;;;9.30;99.90;;;;;;5047824;28;20048;-57
2022/12/20 11:22:15;;;;;;;10.88;4.55;;;9.40;99.90;;;;;;5048116;28;20041;-57
2022/12/20 11:24:59;;;;;;;8.30;4.07;;;9.40;99.90;;;;;;5041738;28;20092;-57
2022/12/20 11:27:56;;;;;;;6.82;4.07;;;9.40;99.90;;;;;;5047579;28;20045;-57
2022/12/20 11:30:45;;;;;;;7.43;4.55;;;9.40;99.90;;;;;;5046647;28;20052;-57
2022/12/20 11:33:26;;;;;;;7.43;4.43;;;9.50;99.90;;;;;;5047280;28;20041;-57
2022/12/20 11:36:01;;;;;;;5.53;3.75;;;9.50;99.90;;;;;;5046874;28;20052;-56
2022/12/20 11:39:10;;;;;;;8.13;4.60;;;9.80;99.90;;;;;;5047390;28;20099;-57
2022/12/20 11:41:50;;;;;;;6.43;4.25;;;9.50;99.90;;;;;;5024399;28;20045;-57
2022/12/20 11:44:35;;;;;;;9.95;4.20;;;9.50;99.90;;;;;;5045304;28;20071;-57
2022/12/20 11:47:22;;;;;;;8.70;4.72;;;9.60;99.90;;;;;;5047201;28;20043;-57
2022/12/20 11:50:22;;;;;;;7.03;4.28;;;9.60;99.90;;;;;;5047111;28;20095;-57
2022/12/20 11:52:55;;;;;;;9.50;4.30;;;9.50;99.90;;;;;;5046925;28;20094;-57
2022/12/20 11:55:26;;;;;;;6.90;4.20;;;9.80;99.90;;;;;;5046855;28;20403;-57
2022/12/20 11:58:14;;;;;;;7.35;4.45;;;9.70;99.90;;;;;;5047004;28;20041;-57
2022/12/20 12:00:43;;;;;;;7.28;3.90;;;9.60;99.90;;;;;;5047243;28;20112;-57
2022/12/20 12:03:20;;;;;;;8.60;4.10;;;10.00;99.90;;;;;;5046748;28;20146;-57
2022/12/20 12:05:51;;;;;;;7.18;3.80;;;9.60;99.90;;;;;;5046865;28;20049;-57
2022/12/20 12:08:50;;;;;;;6.15;4.28;;;9.50;99.90;;;;;;5046517;28;20044;-57
2022/12/20 12:11:23;;;;;;;7.53;4.15;;;9.50;99.90;;;;;;5045988;28;20063;-57
2022/12/20 12:13:49;;;;;;;7.88;4.35;;;9.70;99.90;;;;;;5046636;28;20087;-57
2022/12/20 12:16:33;;;;;;;6.18;4.03;;;9.60;99.90;;;;;;5045883;28;20133;-57
2022/12/20 12:19:00;;;;;;;8.98;4.68;;;9.60;99.90;;;;;;5046708;28;20124;-57
2022/12/20 12:21:32;;;;;;;7.40;4.63;;;9.50;99.90;;;;;;5046283;28;20037;-57
2022/12/20 12:24:19;;;;;;;7.63;4.78;;;9.60;99.90;;;;;;5046722;28;20077;-57
2022/12/20 12:26:45;;;;;;;6.60;4.15;;;9.50;99.90;;;;;;5046750;28;20098;-57
2022/12/20 12:29:12;;;;;;;8.98;4.22;;;9.50;99.90;;;;;;5046871;28;20045;-57
2022/12/20 12:31:50;;;;;;;7.25;3.90;;;9.60;99.90;;;;;;5044947;28;20041;-57
2022/12/20 12:34:39;;;;;;;8.27;4.68;;;9.60;99.90;;;;;;5046373;28;20051;-57
2022/12/20 12:37:52;;;;;;;7.22;4.18;;;9.60;99.90;;;;;;5046585;28;20076;-57
2022/12/20 12:40:56;;;;;;;7.93;4.68;;;9.60;99.90;;;;;;5033704;28;20049;-57
2022/12/20 12:43:36;;;;;;;9.35;4.72;;;9.60;99.90;;;;;;5050489;28;20132;-57
2022/12/20 12:46:08;;;;;;;8.25;5.07;;;9.70;99.90;;;;;;5049020;28;20063;-57
2022/12/20 12:48:58;;;;;;;11.35;5.63;;;9.60;99.90;;;;;;5049847;28;20402;-58
2022/12/20 12:51:48;;;;;;;8.95;5.15;;;9.70;99.90;;;;;;5049668;28;20036;-57
2022/12/20 12:54:22;;;;;;;11.20;4.93;;;9.70;99.90;;;;;;5050174;28;20082;-57
2022/12/20 12:56:49;;;;;;;11.05;5.90;;;9.70;99.90;;;;;;5049746;28;20490;-57
2022/12/20 12:59:33;;;;;;;10.05;5.75;;;9.70;99.90;;;;;;5049029;28;20045;-57
2022/12/20 13:02:04;;;;;;;8.77;5.20;;;9.70;99.90;;;;;;5049916;28;20065;-57
2022/12/20 13:05:05;;;;;;;13.20;6.43;;;9.70;99.90;;;;;;5049790;28;20045;-57
2022/12/20 13:07:39;;;;;;;8.82;5.90;;;9.70;99.90;;;;;;5045670;28;20127;-58
2022/12/20 13:10:08;;;;;;;9.90;6.15;;;9.60;99.90;;;;;;5050233;28;20438;-58
2022/12/20 13:12:36;;;;;;;8.93;6.68;;;9.70;99.90;;;;;;5048675;28;20049;-57
2022/12/20 13:15:20;;;;;;;11.93;6.50;;;9.60;99.90;;;;;;5049664;28;20052;-57
2022/12/20 13:18:12;;;;;;;11.43;7.32;;;9.70;99.90;;;;;;5049367;28;20478;-58
2022/12/20 13:20:38;;;;;;;11.18;6.82;;;9.60;99.90;;;;;;5040784;28;20115;-57